createdAt,value
2022-11-21T00:01:45.111Z,5.40
2022-11-21T00:04:11.361Z,5.35
2022-11-21T00:06:37.542Z,5.13
2022-11-21T00:09:03.799Z,5.28
2022-11-21T00:11:30.075Z,5.45
2022-11-21T00:13:56.269Z,5.47
2022-11-21T00:16:22.524Z,5.00
2022-11-21T00:18:48.821Z,6.57
2022-11-21T00:21:16.122Z,5.70
2022-11-21T00:23:43.112Z,5.85
2022-11-21T00:26:10.318Z,5.50
2022-11-21T00:28:36.563Z,5.68
2022-11-21T00:31:03.357Z,6.68
2022-11-21T00:33:29.602Z,5.72
2022-11-21T00:35:55.785Z,5.53
2022-11-21T00:38:24.189Z,6.13
2022-11-21T00:40:50.395Z,5.65
2022-11-21T00:43:16.610Z,5.35
2022-11-21T00:45:42.823Z,5.50
2022-11-21T00:48:09.144Z,5.45
2022-11-21T00:50:35.344Z,4.90
2022-11-21T00:53:01.593Z,6.05
2022-11-21T00:55:27.806Z,5.82
2022-11-21T00:57:54.050Z,5.60
2022-11-21T01:00:20.272Z,5.32
2022-11-21T01:02:46.530Z,5.13
2022-11-21T01:05:12.735Z,5.22
2022-11-21T01:07:39.120Z,5.50
2022-11-21T01:10:05.636Z,5.75
2022-11-21T01:12:31.869Z,4.97
2022-11-21T01:14:58.075Z,5.07
2022-11-21T01:17:24.312Z,5.32
2022-11-21T01:19:50.517Z,5.10
2022-11-21T01:22:16.797Z,5.50
2022-11-21T01:24:42.999Z,5.53
2022-11-21T01:27:09.197Z,5.78
2022-11-21T01:29:35.601Z,4.25
2022-11-21T01:32:01.797Z,5.32
2022-11-21T01:34:28.217Z,5.15
2022-11-21T01:36:54.635Z,4.47
2022-11-21T01:39:20.925Z,4.43
2022-11-21T01:41:47.121Z,5.20
2022-11-21T01:44:24.165Z,4.60
2022-11-21T01:46:51.143Z,4.45
2022-11-21T01:49:29.394Z,4.30
2022-11-21T01:52:01.346Z,4.20
2022-11-21T01:54:30.204Z,4.95
2022-11-21T01:57:01.664Z,4.47
2022-11-21T01:59:31.218Z,4.63
2022-11-21T02:01:57.835Z,4.78
2022-11-21T02:04:26.353Z,4.20
2022-11-21T02:06:52.814Z,3.90
2022-11-21T02:09:19.463Z,4.35
2022-11-21T02:11:50.878Z,4.45
2022-11-21T02:14:17.766Z,3.42
2022-11-21T02:16:44.127Z,4.10
2022-11-21T02:19:13.363Z,4.35
2022-11-21T02:21:39.555Z,4.28
2022-11-21T02:24:14.108Z,3.95
2022-11-21T02:26:40.627Z,3.53
2022-11-21T02:29:07.054Z,3.38
2022-11-21T02:31:33.255Z,4.45
2022-11-21T02:33:59.459Z,3.97
2022-11-21T02:36:45.309Z,3.67
2022-11-21T02:39:14.528Z,3.22
2022-11-21T02:41:43.445Z,3.53
2022-11-21T02:44:15.671Z,3.75
2022-11-21T02:46:49.517Z,2.97
2022-11-21T02:49:18.382Z,3.40
2022-11-21T02:51:44.592Z,3.05
2022-11-21T02:54:10.809Z,3.47
2022-11-21T02:56:37.015Z,3.58
2022-11-21T02:59:03.862Z,3.17
2022-11-21T03:01:30.124Z,3.65
2022-11-21T03:03:56.350Z,3.58
2022-11-21T03:06:22.529Z,3.88
2022-11-21T03:08:48.801Z,3.25
2022-11-21T03:11:15.009Z,2.95
2022-11-21T03:13:41.233Z,3.47
2022-11-21T03:16:07.417Z,2.90
2022-11-21T03:18:33.593Z,3.55
2022-11-21T03:20:59.807Z,3.45
2022-11-21T03:23:26.003Z,3.65
2022-11-21T03:25:52.268Z,3.60
2022-11-21T03:28:18.492Z,3.50
2022-11-21T03:30:44.730Z,3.33
2022-11-21T03:33:10.948Z,3.55
2022-11-21T03:35:37.135Z,3.50
2022-11-21T03:38:03.347Z,3.10
2022-11-21T03:40:29.547Z,3.33
2022-11-21T03:42:55.777Z,3.80
2022-11-21T03:45:21.968Z,3.22
2022-11-21T03:47:48.173Z,3.38
2022-11-21T03:50:18.403Z,3.75
2022-11-21T03:52:44.608Z,4.22
2022-11-21T03:55:10.810Z,4.03
2022-11-21T03:57:36.995Z,4.55
2022-11-21T04:00:03.381Z,4.35
2022-11-21T04:02:29.640Z,4.00
2022-11-21T04:04:55.899Z,4.28
2022-11-21T04:07:22.175Z,4.00
2022-11-21T04:09:48.425Z,4.75
2022-11-21T04:12:14.718Z,4.30
2022-11-21T04:14:40.933Z,4.03
2022-11-21T04:17:07.322Z,4.80
2022-11-21T04:19:33.546Z,4.63
2022-11-21T04:21:59.778Z,5.00
2022-11-21T04:24:26.374Z,5.53
2022-11-21T04:26:53.960Z,5.07
2022-11-21T04:29:20.189Z,5.50
2022-11-21T04:31:46.358Z,5.10
2022-11-21T04:34:12.620Z,5.60
2022-11-21T04:36:38.952Z,5.30
2022-11-21T04:39:05.164Z,6.32
2022-11-21T04:41:31.367Z,6.10
2022-11-21T04:43:57.582Z,6.40
2022-11-21T04:46:23.959Z,5.85
2022-11-21T04:48:50.165Z,6.15
2022-11-21T04:51:16.375Z,6.20
2022-11-21T04:53:43.274Z,6.40
2022-11-21T04:56:09.876Z,5.88
2022-11-21T04:58:36.086Z,7.13
2022-11-21T05:01:06.299Z,6.95
2022-11-21T05:03:32.551Z,8.15
2022-11-21T05:05:58.740Z,7.35
2022-11-21T05:08:25.160Z,7.50
2022-11-21T05:11:10.222Z,7.75
2022-11-21T05:13:36.431Z,7.28
2022-11-21T05:16:02.829Z,7.68
2022-11-21T05:18:29.094Z,7.38
2022-11-21T05:20:55.302Z,7.53
2022-11-21T05:23:21.496Z,7.40
2022-11-21T05:25:47.711Z,7.63
2022-11-21T05:28:14.132Z,7.78
2022-11-21T05:30:40.366Z,7.85
2022-11-21T05:33:06.981Z,8.30
2022-11-21T05:35:33.292Z,8.70
2022-11-21T05:37:59.541Z,9.07
2022-11-21T05:40:26.053Z,10.07
2022-11-21T05:43:11.086Z,9.40
2022-11-21T05:45:37.302Z,9.57
2022-11-21T05:48:07.620Z,9.52
2022-11-21T05:50:35.371Z,10.20
2022-11-21T05:53:03.475Z,9.70
2022-11-21T05:55:29.744Z,10.25
2022-11-21T05:57:58.039Z,9.57
2022-11-21T06:00:24.323Z,9.88
2022-11-21T06:03:09.172Z,9.30
2022-11-21T06:05:35.435Z,9.73
2022-11-21T06:08:01.722Z,10.15
2022-11-21T06:10:28.119Z,9.98
2022-11-21T06:12:54.333Z,10.18
2022-11-21T06:15:21.627Z,10.68
2022-11-21T06:17:47.849Z,10.50
2022-11-21T06:20:14.401Z,9.95
2022-11-21T06:22:40.647Z,10.85
2022-11-21T06:25:06.942Z,10.27
2022-11-21T06:27:33.142Z,11.05
2022-11-21T06:29:59.404Z,10.20
2022-11-21T06:32:25.675Z,10.80
2022-11-21T06:34:51.907Z,10.52
2022-11-21T06:37:18.119Z,10.60
2022-11-21T06:39:44.315Z,10.98
2022-11-21T06:42:10.535Z,10.70
2022-11-21T06:44:36.737Z,10.07
2022-11-21T06:47:02.983Z,9.02
2022-11-21T06:49:29.201Z,9.50
2022-11-21T06:51:55.480Z,9.63
2022-11-21T06:54:21.674Z,8.90
2022-11-21T06:56:47.883Z,8.45
2022-11-21T06:59:14.062Z,8.50
2022-11-21T07:01:40.338Z,8.02
2022-11-21T07:04:06.543Z,7.35
2022-11-21T07:06:34.033Z,7.65
2022-11-21T07:09:31.078Z,7.65
2022-11-21T07:11:46.423Z,7.45
2022-11-21T07:14:12.839Z,6.90
2022-11-21T07:16:39.106Z,7.70
2022-11-21T07:19:05.507Z,6.72
2022-11-21T07:21:31.793Z,6.03
2022-11-21T07:23:58.064Z,7.28
2022-11-21T07:26:24.299Z,7.32
2022-11-21T07:28:50.514Z,7.00
2022-11-21T07:31:16.744Z,7.78
2022-11-21T07:33:46.711Z,6.40
2022-11-21T07:36:13.230Z,7.10
2022-11-21T07:38:41.053Z,8.30
2022-11-21T07:41:07.272Z,6.93
2022-11-21T07:43:33.551Z,6.88
2022-11-21T07:45:59.753Z,7.35
2022-11-21T07:48:26.004Z,8.13
2022-11-21T07:50:52.205Z,7.43
2022-11-21T07:53:18.412Z,7.45
2022-11-21T07:55:44.633Z,7.22
2022-11-21T07:58:12.180Z,7.15
2022-11-21T08:00:39.667Z,7.55
2022-11-21T08:03:06.897Z,8.23
2022-11-21T08:05:40.537Z,8.05
2022-11-21T08:08:06.997Z,7.78
2022-11-21T08:10:33.830Z,7.47
2022-11-21T08:13:00.130Z,7.88
2022-11-21T08:15:26.398Z,7.65
2022-11-21T08:17:52.658Z,8.05
2022-11-21T08:20:18.887Z,8.35
2022-11-21T08:22:45.152Z,8.27
2022-11-21T08:25:11.529Z,9.30
2022-11-21T08:27:38.621Z,9.00
2022-11-21T08:30:06.436Z,7.55
2022-11-21T08:32:32.687Z,8.38
2022-11-21T08:34:58.867Z,8.55
2022-11-21T08:37:26.477Z,8.82
2022-11-21T08:39:52.802Z,8.15
2022-11-21T08:42:19.070Z,8.38
2022-11-21T08:44:45.255Z,8.93
2022-11-21T08:47:11.466Z,9.20
2022-11-21T08:49:37.658Z,8.70
2022-11-21T08:52:03.988Z,9.35
2022-11-21T08:54:30.507Z,10.10
2022-11-21T08:56:56.865Z,9.70
2022-11-21T08:59:23.063Z,11.10
2022-11-21T09:01:49.423Z,10.48
2022-11-21T09:04:15.671Z,10.68
2022-11-21T09:06:41.983Z,11.25
2022-11-21T09:09:08.863Z,11.07
2022-11-21T09:11:35.630Z,10.73
2022-11-21T09:14:20.685Z,12.10
2022-11-21T09:17:05.300Z,11.23
2022-11-21T09:19:31.500Z,11.65
2022-11-21T09:21:57.829Z,11.00
2022-11-21T09:24:24.063Z,10.30
2022-11-21T09:26:50.268Z,11.38
2022-11-21T09:29:16.512Z,10.82
2022-11-21T09:31:42.850Z,10.25
2022-11-21T09:34:09.190Z,9.77
2022-11-21T09:36:35.545Z,8.13
2022-11-21T09:39:01.946Z,7.78
2022-11-21T09:41:53.030Z,8.23
2022-11-21T09:44:37.406Z,7.55
2022-11-21T09:47:09.486Z,6.82
2022-11-21T09:49:39.120Z,7.10
2022-11-21T09:52:05.549Z,7.20
2022-11-21T09:54:34.729Z,6.30
2022-11-21T09:57:01.169Z,6.95
2022-11-21T09:59:27.351Z,5.70
2022-11-21T10:01:53.580Z,5.05
2022-11-21T10:04:19.798Z,4.80
2022-11-21T10:06:55.581Z,4.35
2022-11-21T10:09:27.738Z,3.33
2022-11-21T10:12:21.387Z,3.70
2022-11-21T10:14:56.635Z,3.58
2022-11-21T10:17:28.653Z,3.55
2022-11-21T10:20:08.700Z,3.65
2022-11-21T10:22:40.801Z,3.00
2022-11-21T10:25:18.488Z,3.03
2022-11-21T10:27:51.758Z,2.33
2022-11-21T10:30:19.639Z,2.97
2022-11-21T10:32:51.445Z,3.13
2022-11-21T10:35:20.864Z,3.17
2022-11-21T10:37:49.842Z,2.83
2022-11-21T10:40:22.180Z,2.63
2022-11-21T10:43:26.496Z,2.90
2022-11-21T10:45:53.074Z,2.90
2022-11-21T10:48:19.274Z,2.72
2022-11-21T10:51:04.625Z,2.17
2022-11-21T10:53:50.171Z,1.95
2022-11-21T10:56:21.438Z,2.35
2022-11-21T10:58:48.991Z,2.30
2022-11-21T11:01:34.517Z,2.00
2022-11-21T11:06:56.298Z,1.95
2022-11-21T11:09:28.152Z,2.08
2022-11-21T11:12:14.303Z,1.77
2022-11-21T11:14:40.537Z,1.65
2022-11-21T11:17:12.920Z,2.00
2022-11-21T11:19:40.606Z,1.52
2022-11-21T11:22:26.164Z,1.73
2022-11-21T11:24:56.256Z,1.63
2022-11-21T11:27:28.911Z,1.48
2022-11-21T11:29:55.513Z,1.60
2022-11-21T11:32:22.421Z,1.52
2022-11-21T11:34:57.566Z,1.60
2022-11-21T11:37:40.795Z,1.40
2022-11-21T11:40:21.631Z,1.50
2022-11-21T11:43:12.287Z,1.50
2022-11-21T11:45:57.057Z,1.77
2022-11-21T11:48:23.263Z,2.03
2022-11-21T11:50:51.350Z,2.08
2022-11-21T11:53:19.497Z,1.60
2022-11-21T11:55:53.109Z,1.98
2022-11-21T11:58:39.590Z,1.50
2022-11-21T12:01:17.954Z,2.25
2022-11-21T12:03:53.424Z,1.60
2022-11-21T12:06:57.439Z,1.90
2022-11-21T12:09:24.879Z,2.05
2022-11-21T12:12:15.661Z,1.70
2022-11-21T12:15:20.451Z,1.45
2022-11-21T12:18:01.637Z,1.38
2022-11-21T12:20:30.069Z,1.17
2022-11-21T12:22:56.669Z,1.55
2022-11-21T12:25:30.181Z,1.13
2022-11-21T12:27:56.996Z,1.40
2022-11-21T12:30:29.424Z,1.10
2022-11-21T12:33:08.606Z,1.33
2022-11-21T12:35:41.286Z,1.55
2022-11-21T12:38:07.458Z,1.17
2022-11-21T12:40:42.997Z,1.35
2022-11-21T12:43:18.146Z,1.63
2022-11-21T12:46:19.470Z,1.23
2022-11-21T12:49:04.101Z,1.40
2022-11-21T12:51:52.194Z,1.60
2022-11-21T12:54:30.612Z,1.73
2022-11-21T12:57:15.314Z,1.63
2022-11-21T13:00:00.241Z,1.27
2022-11-21T13:02:26.602Z,1.52
2022-11-21T13:04:54.595Z,1.30
2022-11-21T13:07:21.456Z,1.40
2022-11-21T13:09:50.389Z,1.60
2022-11-21T13:12:22.748Z,1.25
2022-11-21T13:15:07.555Z,1.55
2022-11-21T13:17:36.732Z,1.52
2022-11-21T13:20:19.273Z,1.80
2022-11-21T13:22:45.523Z,1.67
2022-11-21T13:25:12.915Z,1.50
2022-11-21T13:27:40.366Z,1.50
2022-11-21T13:30:06.553Z,1.63
2022-11-21T13:32:45.687Z,1.75
2022-11-21T13:35:15.010Z,2.95
2022-11-21T13:37:47.326Z,2.00
2022-11-21T13:40:29.809Z,1.75
2022-11-21T13:43:32.846Z,1.58
2022-11-21T13:45:59.910Z,1.75
2022-11-21T13:48:34.478Z,1.92
2022-11-21T13:51:18.826Z,1.67
2022-11-21T13:54:00.305Z,1.58
2022-11-21T13:56:26.499Z,1.50
2022-11-21T13:59:00.511Z,1.83
2022-11-21T14:01:32.707Z,1.92
2022-11-21T14:04:18.209Z,1.40
2022-11-21T14:06:44.729Z,2.05
2022-11-21T14:09:16.952Z,1.48
2022-11-21T14:11:50.548Z,1.35
2022-11-21T14:14:28.125Z,1.55
2022-11-21T14:17:09.252Z,2.00
2022-11-21T14:19:35.756Z,1.65
2022-11-21T14:22:02.091Z,1.85
2022-11-21T14:24:28.361Z,1.90
2022-11-21T14:26:54.782Z,1.52
2022-11-21T14:29:28.902Z,1.30
2022-11-21T14:31:55.744Z,2.05
2022-11-21T14:34:29.118Z,1.88
2022-11-21T14:36:58.104Z,1.50
2022-11-21T14:39:37.281Z,1.77
2022-11-21T14:44:32.577Z,1.80
2022-11-21T14:47:05.435Z,1.83
2022-11-21T14:49:31.784Z,1.55
2022-11-21T14:51:58.727Z,2.05
2022-11-21T14:54:30.773Z,1.85
2022-11-21T14:56:59.522Z,2.25
2022-11-21T14:59:27.152Z,2.22
2022-11-21T15:01:54.825Z,2.28
2022-11-21T15:04:26.126Z,2.15
2022-11-21T15:06:52.752Z,2.58
2022-11-21T15:12:07.841Z,2.25
2022-11-21T15:14:34.083Z,2.55
2022-11-21T15:17:01.124Z,2.13
2022-11-21T15:19:28.995Z,2.03
2022-11-21T15:21:56.969Z,2.67
2022-11-21T15:24:29.635Z,2.60
2022-11-21T15:26:55.917Z,2.30
2022-11-21T15:29:22.622Z,2.28
2022-11-21T15:32:07.780Z,2.53
2022-11-21T15:34:35.795Z,2.17
2022-11-21T15:37:04.773Z,2.13
2022-11-21T15:39:31.209Z,2.25
2022-11-21T15:42:17.369Z,1.95
2022-11-21T15:44:58.717Z,2.30
2022-11-21T15:47:24.915Z,2.47
2022-11-21T15:49:51.114Z,2.20
2022-11-21T15:52:17.359Z,2.50
2022-11-21T15:54:43.581Z,2.42
2022-11-21T15:57:09.810Z,2.38
2022-11-21T15:59:36.073Z,2.60
2022-11-21T16:02:02.453Z,2.70
2022-11-21T16:04:28.623Z,2.78
2022-11-21T16:06:54.912Z,2.20
2022-11-21T16:09:21.170Z,2.05
2022-11-21T16:11:47.432Z,2.05
2022-11-21T16:14:14.479Z,2.90
2022-11-21T16:16:43.516Z,3.25
2022-11-21T16:19:10.790Z,3.00
2022-11-21T16:21:37.133Z,2.85
2022-11-21T16:24:03.638Z,2.45
2022-11-21T16:26:29.928Z,2.63
2022-11-21T16:28:56.862Z,3.15
2022-11-21T16:31:24.041Z,2.88
2022-11-21T16:33:50.406Z,2.92
2022-11-21T16:36:23.619Z,3.63
2022-11-21T16:38:49.837Z,3.17
2022-11-21T16:41:19.849Z,3.58
2022-11-21T16:43:47.549Z,3.20
2022-11-21T16:46:14.175Z,3.38
2022-11-21T16:48:40.967Z,3.55
2022-11-21T16:51:12.333Z,2.92
2022-11-21T16:53:39.320Z,3.35
2022-11-21T16:56:05.637Z,3.45
2022-11-21T16:58:31.980Z,3.35
2022-11-21T17:00:59.257Z,3.90
2022-11-21T17:03:25.530Z,3.33
2022-11-21T17:05:58.222Z,3.25
2022-11-21T17:08:24.454Z,2.80
2022-11-21T17:10:50.711Z,3.72
2022-11-21T17:13:16.914Z,4.28
2022-11-21T17:15:43.155Z,4.00
2022-11-21T17:18:09.413Z,3.33
2022-11-21T17:20:35.603Z,3.38
2022-11-21T17:23:02.825Z,3.60
2022-11-21T17:25:29.206Z,3.40
2022-11-21T17:27:55.717Z,2.90
2022-11-21T17:30:22.640Z,2.95
2022-11-21T17:32:48.868Z,3.10
2022-11-21T17:35:15.103Z,3.35
2022-11-21T17:37:41.302Z,3.55
2022-11-21T17:40:11.931Z,3.05
2022-11-21T17:42:40.943Z,3.00
2022-11-21T17:45:07.614Z,3.38
2022-11-21T17:47:34.007Z,3.00
2022-11-21T17:50:05.623Z,3.92
2022-11-21T17:52:32.446Z,3.67
2022-11-21T17:54:58.887Z,3.47
2022-11-21T17:57:25.171Z,3.55
2022-11-21T17:59:51.380Z,3.30
2022-11-21T18:02:18.191Z,3.80
2022-11-21T18:04:44.638Z,4.30
2022-11-21T18:07:10.993Z,3.80
2022-11-21T18:09:37.250Z,3.97
2022-11-21T18:12:03.630Z,3.75
2022-11-21T18:14:30.679Z,3.72
2022-11-21T18:16:57.235Z,3.88
2022-11-21T18:19:24.145Z,3.63
2022-11-21T18:21:51.638Z,4.03
2022-11-21T18:24:17.901Z,3.30
2022-11-21T18:26:44.100Z,4.07
2022-11-21T18:29:35.234Z,3.72
2022-11-21T18:31:56.652Z,3.63
2022-11-21T18:34:22.874Z,3.80
2022-11-21T18:36:49.150Z,3.75
2022-11-21T18:39:15.863Z,4.00
2022-11-21T18:41:42.437Z,3.70
2022-11-21T18:44:08.758Z,4.05
2022-11-21T18:46:36.311Z,4.10
2022-11-21T18:49:05.874Z,3.75
2022-11-21T18:51:32.970Z,4.60
2022-11-21T18:54:00.336Z,4.07
2022-11-21T18:56:26.586Z,3.90
2022-11-21T18:58:58.360Z,3.92
2022-11-21T19:01:27.082Z,4.43
2022-11-21T19:03:53.763Z,4.65
2022-11-21T19:06:21.233Z,4.15
2022-11-21T19:08:50.065Z,3.90
2022-11-21T19:11:17.102Z,4.10
2022-11-21T19:13:43.504Z,4.18
2022-11-21T19:16:13.929Z,4.60
2022-11-21T19:18:42.459Z,4.38
2022-11-21T19:21:11.538Z,4.35
2022-11-21T19:23:39.298Z,4.28
2022-11-21T19:26:06.362Z,4.35
2022-11-21T19:28:32.919Z,4.20
2022-11-21T19:31:00.775Z,3.88
2022-11-21T19:33:28.502Z,4.30
2022-11-21T19:35:54.981Z,3.95
2022-11-21T19:38:21.311Z,5.00
2022-11-21T19:41:06.388Z,3.70
2022-11-21T19:43:32.694Z,3.83
2022-11-21T19:46:03.316Z,3.65
2022-11-21T19:48:30.311Z,4.20
2022-11-21T19:50:58.676Z,4.32
2022-11-21T19:53:25.744Z,4.30
2022-11-21T19:55:51.943Z,3.92
2022-11-21T19:58:18.428Z,3.95
2022-11-21T20:00:44.875Z,4.88
2022-11-21T20:03:11.088Z,3.78
2022-11-21T20:05:37.566Z,4.20
2022-11-21T20:08:11.849Z,4.10
2022-11-21T20:10:42.738Z,4.57
2022-11-21T20:13:08.946Z,4.38
2022-11-21T20:15:37.564Z,4.30
2022-11-21T20:18:05.162Z,4.55
2022-11-21T20:20:31.381Z,4.32
2022-11-21T20:22:57.575Z,4.65
2022-11-21T20:25:23.800Z,4.60
2022-11-21T20:27:50.009Z,4.32
2022-11-21T20:30:16.360Z,4.50
2022-11-21T20:32:42.590Z,4.47
2022-11-21T20:35:09.022Z,4.72
2022-11-21T20:37:35.207Z,4.45
2022-11-21T20:40:01.446Z,4.25
2022-11-21T20:42:27.658Z,4.93
2022-11-21T20:47:40.055Z,3.90
2022-11-21T20:50:06.334Z,4.40
2022-11-21T20:53:44.370Z,4.03
2022-11-21T20:55:18.797Z,4.80
2022-11-21T20:57:44.998Z,3.55
2022-11-21T21:00:11.827Z,4.35
2022-11-21T21:02:38.064Z,4.15
2022-11-21T21:05:04.471Z,4.18
2022-11-21T21:07:30.744Z,4.05
2022-11-21T21:09:57.037Z,4.32
2022-11-21T21:12:24.220Z,4.57
2022-11-21T21:14:50.441Z,4.22
2022-11-21T21:17:16.823Z,4.95
2022-11-21T21:19:43.037Z,4.13
2022-11-21T21:22:09.688Z,4.43
2022-11-21T21:24:35.919Z,4.03
2022-11-21T21:27:02.241Z,4.10
2022-11-21T21:29:28.757Z,4.38
2022-11-21T21:31:55.216Z,9.48
2022-11-21T21:34:22.028Z,4.15
2022-11-21T21:36:48.553Z,3.80
2022-11-21T21:39:14.982Z,3.70
2022-11-21T21:41:44.313Z,3.55
2022-11-21T21:44:10.653Z,3.72
2022-11-21T21:46:36.878Z,3.42
2022-11-21T21:49:03.070Z,3.40
2022-11-21T21:51:30.207Z,3.75
2022-11-21T21:53:57.196Z,4.10
2022-11-21T21:56:24.540Z,3.63
2022-11-21T21:58:51.080Z,3.50
2022-11-21T22:01:20.896Z,3.53
2022-11-21T22:03:47.578Z,3.67
2022-11-21T22:06:14.756Z,3.35
2022-11-21T22:08:41.257Z,3.10
2022-11-21T22:11:09.096Z,3.80
2022-11-21T22:13:35.614Z,2.90
2022-11-21T22:16:02.585Z,3.30
2022-11-21T22:18:29.385Z,2.88
2022-11-21T22:20:55.639Z,3.55
2022-11-21T22:23:22.021Z,2.90
2022-11-21T22:25:48.698Z,3.30
2022-11-21T22:28:15.105Z,2.70
2022-11-21T22:30:41.380Z,2.80
2022-11-21T22:33:07.729Z,3.03
2022-11-21T22:35:34.689Z,3.35
2022-11-21T22:38:00.861Z,4.55
2022-11-21T22:40:27.230Z,3.10
2022-11-21T22:42:53.428Z,2.97
2022-11-21T22:45:19.667Z,2.47
2022-11-21T22:47:48.056Z,3.00
2022-11-21T22:50:15.494Z,3.03
2022-11-21T22:52:41.860Z,3.90
2022-11-21T22:55:08.321Z,2.88
2022-11-21T22:57:34.602Z,3.03
2022-11-21T23:00:01.227Z,3.20
2022-11-21T23:02:27.440Z,3.15
2022-11-21T23:04:53.688Z,2.60
2022-11-21T23:07:19.990Z,2.45
2022-11-21T23:09:46.273Z,2.90
2022-11-21T23:12:12.504Z,2.90
2022-11-21T23:14:38.802Z,2.80
2022-11-21T23:17:05.022Z,3.80
2022-11-21T23:19:31.473Z,3.20
2022-11-21T23:21:57.846Z,4.53
2022-11-21T23:24:24.039Z,2.90
2022-11-21T23:26:50.261Z,3.63
2022-11-21T23:29:16.456Z,3.10
2022-11-21T23:31:42.686Z,2.70
2022-11-21T23:34:11.272Z,2.95
2022-11-21T23:36:37.580Z,3.08
2022-11-21T23:39:04.377Z,2.85
2022-11-21T23:41:30.802Z,2.90
2022-11-21T23:43:57.115Z,2.90
2022-11-21T23:46:23.418Z,3.42
2022-11-21T23:48:49.919Z,2.95
2022-11-21T23:51:16.169Z,2.90
2022-11-21T23:53:42.426Z,3.33
2022-11-21T23:56:08.634Z,2.92
2022-11-21T23:58:34.886Z,3.00
